sensor_id;sensor_type;location;lat;lon;timestamp;P1;durP1;ratioP1;P2;durP2;ratioP2
40339;SDS011;26044;50.864;20.658;2022-09-27T00:01:45;47.30;;;28.95;;
40339;SDS011;26044;50.864;20.658;2022-09-27T00:04:12;53.63;;;31.80;;
40339;SDS011;26044;50.864;20.658;2022-09-27T00:06:40;53.65;;;30.80;;
40339;SDS011;26044;50.864;20.658;2022-09-27T00:09:10;50.55;;;30.27;;
40339;SDS011;26044;50.864;20.658;2022-09-27T00:11:43;50.92;;;29.83;;
40339;SDS011;26044;50.864;20.658;2022-09-27T00:14:14;51.75;;;30.35;;
40339;SDS011;26044;50.864;20.658;2022-09-27T00:16:45;52.35;;;30.00;;
40339;SDS011;26044;50.864;20.658;2022-09-27T00:19:15;47.83;;;28.75;;
40339;SDS011;26044;50.864;20.658;2022-09-27T00:21:46;60.50;;;31.33;;
40339;SDS011;26044;50.864;20.658;2022-09-27T00:24:16;58.88;;;29.13;;
40339;SDS011;26044;50.864;20.658;2022-09-27T00:26:46;61.63;;;31.02;;
40339;SDS011;26044;50.864;20.658;2022-09-27T00:29:18;58.72;;;29.10;;
40339;SDS011;26044;50.864;20.658;2022-09-27T00:31:47;63.88;;;30.73;;
40339;SDS011;26044;50.864;20.658;2022-09-27T00:34:19;61.17;;;29.80;;
40339;SDS011;26044;50.864;20.658;2022-09-27T00:36:51;62.47;;;30.33;;
40339;SDS011;26044;50.864;20.658;2022-09-27T00:39:21;67.60;;;31.40;;
40339;SDS011;26044;50.864;20.658;2022-09-27T00:41:47;71.40;;;29.42;;
40339;SDS011;26044;50.864;20.658;2022-09-27T00:54:51;54.83;;;26.70;;
40339;SDS011;26044;50.864;20.658;2022-09-27T00:57:24;69.93;;;29.50;;
40339;SDS011;26044;50.864;20.658;2022-09-27T00:59:52;68.93;;;29.30;;
40339;SDS011;26044;50.864;20.658;2022-09-27T01:02:28;66.05;;;26.90;;
40339;SDS011;26044;50.864;20.658;2022-09-27T01:05:17;62.15;;;28.30;;
40339;SDS011;26044;50.864;20.658;2022-09-27T01:07:54;72.35;;;29.10;;
40339;SDS011;26044;50.864;20.658;2022-09-27T01:10:22;57.85;;;27.17;;
40339;SDS011;26044;50.864;20.658;2022-09-27T01:13:04;71.25;;;27.52;;
40339;SDS011;26044;50.864;20.658;2022-09-27T01:15:42;61.30;;;27.98;;
40339;SDS011;26044;50.864;20.658;2022-09-27T01:18:51;57.70;;;26.45;;
40339;SDS011;26044;50.864;20.658;2022-09-27T01:40:58;59.72;;;25.63;;
40339;SDS011;26044;50.864;20.658;2022-09-27T01:43:56;59.15;;;26.48;;
40339;SDS011;26044;50.864;20.658;2022-09-27T01:46:33;55.88;;;23.65;;
40339;SDS011;26044;50.864;20.658;2022-09-27T01:49:10;51.50;;;25.10;;
40339;SDS011;26044;50.864;20.658;2022-09-27T01:51:51;61.35;;;25.92;;
40339;SDS011;26044;50.864;20.658;2022-09-27T01:54:44;66.30;;;26.33;;
40339;SDS011;26044;50.864;20.658;2022-09-27T01:57:32;62.83;;;26.67;;
40339;SDS011;26044;50.864;20.658;2022-09-27T02:00:12;58.10;;;26.27;;
40339;SDS011;26044;50.864;20.658;2022-09-27T02:02:50;68.00;;;26.83;;
40339;SDS011;26044;50.864;20.658;2022-09-27T02:05:35;68.68;;;26.23;;
40339;SDS011;26044;50.864;20.658;2022-09-27T02:08:15;74.07;;;27.77;;
40339;SDS011;26044;50.864;20.658;2022-09-27T02:11:08;62.95;;;25.38;;
40339;SDS011;26044;50.864;20.658;2022-09-27T02:13:38;66.93;;;25.67;;
40339;SDS011;26044;50.864;20.658;2022-09-27T02:21:54;72.60;;;26.92;;
40339;SDS011;26044;50.864;20.658;2022-09-27T02:24:30;63.83;;;23.95;;
40339;SDS011;26044;50.864;20.658;2022-09-27T02:27:08;66.47;;;24.90;;
40339;SDS011;26044;50.864;20.658;2022-09-27T02:30:05;76.90;;;26.00;;
40339;SDS011;26044;50.864;20.658;2022-09-27T02:32:35;74.68;;;26.73;;
40339;SDS011;26044;50.864;20.658;2022-09-27T02:35:09;71.70;;;25.23;;
40339;SDS011;26044;50.864;20.658;2022-09-27T02:37:42;67.38;;;24.05;;
40339;SDS011;26044;50.864;20.658;2022-09-27T02:40:09;66.50;;;25.17;;
40339;SDS011;26044;50.864;20.658;2022-09-27T02:42:36;66.82;;;24.63;;
40339;SDS011;26044;50.864;20.658;2022-09-27T02:45:03;59.38;;;24.73;;
40339;SDS011;26044;50.864;20.658;2022-09-27T02:52:57;61.17;;;22.67;;
40339;SDS011;26044;50.864;20.658;2022-09-27T02:55:52;63.15;;;23.35;;
40339;SDS011;26044;50.864;20.658;2022-09-27T03:07:25;67.75;;;24.05;;
40339;SDS011;26044;50.864;20.658;2022-09-27T03:12:31;56.70;;;19.65;;
40339;SDS011;26044;50.864;20.658;2022-09-27T03:15:00;55.30;;;20.15;;
40339;SDS011;26044;50.864;20.658;2022-09-27T03:17:49;51.38;;;18.80;;
40339;SDS011;26044;50.864;20.658;2022-09-27T03:20:16;49.03;;;19.33;;
40339;SDS011;26044;50.864;20.658;2022-09-27T03:22:46;47.17;;;19.00;;
40339;SDS011;26044;50.864;20.658;2022-09-27T03:25:13;44.72;;;18.13;;
40339;SDS011;26044;50.864;20.658;2022-09-27T03:27:48;50.58;;;17.67;;
40339;SDS011;26044;50.864;20.658;2022-09-27T03:30:14;47.42;;;17.98;;
40339;SDS011;26044;50.864;20.658;2022-09-27T03:32:43;45.92;;;16.95;;
40339;SDS011;26044;50.864;20.658;2022-09-27T03:35:22;44.63;;;16.30;;
40339;SDS011;26044;50.864;20.658;2022-09-27T03:37:53;44.65;;;17.83;;
40339;SDS011;26044;50.864;20.658;2022-09-27T03:40:34;46.53;;;18.15;;
40339;SDS011;26044;50.864;20.658;2022-09-27T03:45:36;44.25;;;16.33;;
40339;SDS011;26044;50.864;20.658;2022-09-27T03:48:03;51.58;;;17.88;;
40339;SDS011;26044;50.864;20.658;2022-09-27T03:50:52;48.35;;;16.77;;
40339;SDS011;26044;50.864;20.658;2022-09-27T03:53:21;50.17;;;19.05;;
40339;SDS011;26044;50.864;20.658;2022-09-27T03:55:48;63.20;;;18.38;;
40339;SDS011;26044;50.864;20.658;2022-09-27T03:58:15;52.08;;;18.75;;
40339;SDS011;26044;50.864;20.658;2022-09-27T04:00:49;54.15;;;18.92;;
40339;SDS011;26044;50.864;20.658;2022-09-27T04:03:19;60.20;;;19.60;;
40339;SDS011;26044;50.864;20.658;2022-09-27T04:05:50;53.70;;;19.55;;
40339;SDS011;26044;50.864;20.658;2022-09-27T04:08:20;59.00;;;19.95;;
40339;SDS011;26044;50.864;20.658;2022-09-27T04:10:50;49.88;;;19.42;;
40339;SDS011;26044;50.864;20.658;2022-09-27T04:13:23;53.90;;;18.83;;
40339;SDS011;26044;50.864;20.658;2022-09-27T04:15:52;53.92;;;18.60;;
40339;SDS011;26044;50.864;20.658;2022-09-27T04:18:21;53.15;;;18.40;;
40339;SDS011;26044;50.864;20.658;2022-09-27T04:20:52;47.03;;;16.30;;
40339;SDS011;26044;50.864;20.658;2022-09-27T04:23:19;59.08;;;15.70;;
40339;SDS011;26044;50.864;20.658;2022-09-27T04:25:55;54.15;;;15.20;;
40339;SDS011;26044;50.864;20.658;2022-09-27T04:28:21;52.05;;;15.88;;
40339;SDS011;26044;50.864;20.658;2022-09-27T04:30:50;55.67;;;15.43;;
40339;SDS011;26044;50.864;20.658;2022-09-27T04:33:17;41.88;;;14.20;;
40339;SDS011;26044;50.864;20.658;2022-09-27T04:35:44;66.45;;;15.23;;
40339;SDS011;26044;50.864;20.658;2022-09-27T04:38:38;46.15;;;14.18;;
40339;SDS011;26044;50.864;20.658;2022-09-27T04:41:08;68.40;;;15.70;;
40339;SDS011;26044;50.864;20.658;2022-09-27T04:43:55;49.00;;;14.88;;
40339;SDS011;26044;50.864;20.658;2022-09-27T04:49:00;51.45;;;14.43;;
40339;SDS011;26044;50.864;20.658;2022-09-27T04:51:39;44.63;;;13.82;;
40339;SDS011;26044;50.864;20.658;2022-09-27T04:54:06;50.08;;;12.88;;
40339;SDS011;26044;50.864;20.658;2022-09-27T04:56:35;48.90;;;12.40;;
40339;SDS011;26044;50.864;20.658;2022-09-27T04:59:04;41.20;;;12.38;;
40339;SDS011;26044;50.864;20.658;2022-09-27T05:01:39;48.67;;;12.18;;
40339;SDS011;26044;50.864;20.658;2022-09-27T05:04:06;57.38;;;13.35;;
40339;SDS011;26044;50.864;20.658;2022-09-27T05:06:33;48.40;;;11.25;;
40339;SDS011;26044;50.864;20.658;2022-09-27T05:09:07;37.05;;;12.57;;
40339;SDS011;26044;50.864;20.658;2022-09-27T05:11:44;66.15;;;12.85;;
40339;SDS011;26044;50.864;20.658;2022-09-27T05:14:14;72.18;;;14.05;;
40339;SDS011;26044;50.864;20.658;2022-09-27T05:16:50;43.10;;;13.57;;
40339;SDS011;26044;50.864;20.658;2022-09-27T05:23:45;30.30;;;12.05;;
40339;SDS011;26044;50.864;20.658;2022-09-27T05:27:12;41.28;;;11.98;;
40339;SDS011;26044;50.864;20.658;2022-09-27T05:30:45;40.80;;;11.32;;
40339;SDS011;26044;50.864;20.658;2022-09-27T05:33:34;60.40;;;13.40;;
40339;SDS011;26044;50.864;20.658;2022-09-27T05:36:10;57.03;;;14.00;;
40339;SDS011;26044;50.864;20.658;2022-09-27T05:38:46;56.28;;;14.32;;
40339;SDS011;26044;50.864;20.658;2022-09-27T05:41:50;41.05;;;12.68;;
40339;SDS011;26044;50.864;20.658;2022-09-27T05:44:19;55.05;;;14.50;;
40339;SDS011;26044;50.864;20.658;2022-09-27T05:46:47;61.00;;;13.43;;
40339;SDS011;26044;50.864;20.658;2022-09-27T05:49:14;49.08;;;14.65;;
40339;SDS011;26044;50.864;20.658;2022-09-27T05:51:41;42.50;;;14.80;;
40339;SDS011;26044;50.864;20.658;2022-09-27T05:54:08;47.10;;;15.45;;
40339;SDS011;26044;50.864;20.658;2022-09-27T05:56:35;41.05;;;15.20;;
40339;SDS011;26044;50.864;20.658;2022-09-27T05:59:03;42.20;;;12.20;;
40339;SDS011;26044;50.864;20.658;2022-09-27T06:01:30;38.17;;;11.52;;
40339;SDS011;26044;50.864;20.658;2022-09-27T06:04:01;48.03;;;11.82;;
40339;SDS011;26044;50.864;20.658;2022-09-27T06:06:43;40.88;;;12.63;;
40339;SDS011;26044;50.864;20.658;2022-09-27T06:20:02;52.30;;;14.43;;
40339;SDS011;26044;50.864;20.658;2022-09-27T06:22:55;40.97;;;14.15;;
40339;SDS011;26044;50.864;20.658;2022-09-27T06:26:03;47.10;;;14.05;;
40339;SDS011;26044;50.864;20.658;2022-09-27T06:28:33;71.00;;;16.08;;
40339;SDS011;26044;50.864;20.658;2022-09-27T06:31:00;52.25;;;18.38;;
40339;SDS011;26044;50.864;20.658;2022-09-27T06:33:27;59.40;;;18.48;;
40339;SDS011;26044;50.864;20.658;2022-09-27T06:35:54;53.50;;;14.93;;
40339;SDS011;26044;50.864;20.658;2022-09-27T06:38:21;41.65;;;16.40;;
40339;SDS011;26044;50.864;20.658;2022-09-27T06:40:50;40.20;;;15.25;;
40339;SDS011;26044;50.864;20.658;2022-09-27T06:43:19;52.08;;;14.40;;
40339;SDS011;26044;50.864;20.658;2022-09-27T06:45:46;53.22;;;14.32;;
40339;SDS011;26044;50.864;20.658;2022-09-27T06:48:13;48.95;;;13.80;;
40339;SDS011;26044;50.864;20.658;2022-09-27T06:50:41;43.80;;;14.25;;
40339;SDS011;26044;50.864;20.658;2022-09-27T06:53:10;45.30;;;12.88;;
40339;SDS011;26044;50.864;20.658;2022-09-27T06:55:39;52.80;;;15.35;;
40339;SDS011;26044;50.864;20.658;2022-09-27T06:58:06;58.20;;;16.85;;
40339;SDS011;26044;50.864;20.658;2022-09-27T07:00:53;58.78;;;15.80;;
40339;SDS011;26044;50.864;20.658;2022-09-27T07:03:21;50.33;;;14.05;;
40339;SDS011;26044;50.864;20.658;2022-09-27T07:06:03;59.90;;;15.45;;
40339;SDS011;26044;50.864;20.658;2022-09-27T07:08:31;48.10;;;14.85;;
40339;SDS011;26044;50.864;20.658;2022-09-27T07:11:04;46.90;;;13.93;;
40339;SDS011;26044;50.864;20.658;2022-09-27T07:13:32;42.63;;;16.20;;
40339;SDS011;26044;50.864;20.658;2022-09-27T07:16:02;47.60;;;15.05;;
40339;SDS011;26044;50.864;20.658;2022-09-27T07:18:30;38.25;;;14.35;;
40339;SDS011;26044;50.864;20.658;2022-09-27T07:20:58;43.13;;;16.50;;
40339;SDS011;26044;50.864;20.658;2022-09-27T07:23:26;41.15;;;16.50;;
40339;SDS011;26044;50.864;20.658;2022-09-27T07:25:53;38.53;;;16.85;;
40339;SDS011;26044;50.864;20.658;2022-09-27T07:28:20;37.03;;;15.48;;
40339;SDS011;26044;50.864;20.658;2022-09-27T07:30:48;33.25;;;14.65;;
40339;SDS011;26044;50.864;20.658;2022-09-27T07:33:15;40.72;;;15.32;;
40339;SDS011;26044;50.864;20.658;2022-09-27T07:35:42;37.40;;;16.90;;
40339;SDS011;26044;50.864;20.658;2022-09-27T07:38:09;40.15;;;17.75;;
40339;SDS011;26044;50.864;20.658;2022-09-27T07:40:40;38.75;;;17.17;;
40339;SDS011;26044;50.864;20.658;2022-09-27T07:43:07;40.58;;;17.75;;
40339;SDS011;26044;50.864;20.658;2022-09-27T07:45:34;36.15;;;16.25;;
40339;SDS011;26044;50.864;20.658;2022-09-27T07:48:03;37.67;;;17.42;;
40339;SDS011;26044;50.864;20.658;2022-09-27T07:50:31;41.35;;;17.02;;
40339;SDS011;26044;50.864;20.658;2022-09-27T07:52:58;40.10;;;17.42;;
40339;SDS011;26044;50.864;20.658;2022-09-27T07:55:25;38.90;;;17.00;;
40339;SDS011;26044;50.864;20.658;2022-09-27T07:57:51;36.17;;;16.85;;
40339;SDS011;26044;50.864;20.658;2022-09-27T08:00:29;38.17;;;16.92;;
40339;SDS011;26044;50.864;20.658;2022-09-27T08:02:56;35.15;;;15.40;;
40339;SDS011;26044;50.864;20.658;2022-09-27T08:05:23;42.95;;;17.63;;
40339;SDS011;26044;50.864;20.658;2022-09-27T08:07:53;44.67;;;18.88;;
40339;SDS011;26044;50.864;20.658;2022-09-27T08:10:21;40.38;;;17.98;;
40339;SDS011;26044;50.864;20.658;2022-09-27T08:12:51;45.75;;;21.52;;
40339;SDS011;26044;50.864;20.658;2022-09-27T08:15:18;35.45;;;17.67;;
40339;SDS011;26044;50.864;20.658;2022-09-27T08:17:44;36.72;;;17.45;;
40339;SDS011;26044;50.864;20.658;2022-09-27T08:20:11;34.15;;;15.70;;
40339;SDS011;26044;50.864;20.658;2022-09-27T08:22:42;35.40;;;16.92;;
40339;SDS011;26044;50.864;20.658;2022-09-27T08:25:09;39.03;;;18.63;;
40339;SDS011;26044;50.864;20.658;2022-09-27T08:27:36;38.90;;;17.85;;
40339;SDS011;26044;50.864;20.658;2022-09-27T08:30:03;43.20;;;18.88;;
40339;SDS011;26044;50.864;20.658;2022-09-27T08:32:30;35.58;;;17.35;;
40339;SDS011;26044;50.864;20.658;2022-09-27T08:34:57;34.20;;;17.27;;
40339;SDS011;26044;50.864;20.658;2022-09-27T08:37:25;37.40;;;18.27;;
40339;SDS011;26044;50.864;20.658;2022-09-27T08:39:57;35.70;;;17.95;;
40339;SDS011;26044;50.864;20.658;2022-09-27T08:42:40;35.30;;;17.77;;
40339;SDS011;26044;50.864;20.658;2022-09-27T08:45:28;38.97;;;18.45;;
40339;SDS011;26044;50.864;20.658;2022-09-27T08:48:00;36.10;;;17.63;;
40339;SDS011;26044;50.864;20.658;2022-09-27T08:50:32;36.15;;;18.23;;
40339;SDS011;26044;50.864;20.658;2022-09-27T08:55:51;40.47;;;20.27;;
40339;SDS011;26044;50.864;20.658;2022-09-27T09:00:54;37.97;;;20.00;;
40339;SDS011;26044;50.864;20.658;2022-09-27T09:03:28;38.28;;;18.70;;
40339;SDS011;26044;50.864;20.658;2022-09-27T09:08:58;35.53;;;19.60;;
40339;SDS011;26044;50.864;20.658;2022-09-27T09:25:59;36.97;;;20.60;;
40339;SDS011;26044;50.864;20.658;2022-09-27T09:31:18;32.50;;;18.05;;
40339;SDS011;26044;50.864;20.658;2022-09-27T09:33:53;35.17;;;19.10;;
40339;SDS011;26044;50.864;20.658;2022-09-27T09:36:34;35.92;;;18.23;;
40339;SDS011;26044;50.864;20.658;2022-09-27T09:39:15;39.85;;;19.70;;
40339;SDS011;26044;50.864;20.658;2022-09-27T09:41:57;30.85;;;17.52;;
40339;SDS011;26044;50.864;20.658;2022-09-27T09:47:38;31.70;;;17.52;;
40339;SDS011;26044;50.864;20.658;2022-09-27T09:50:25;29.05;;;16.40;;
40339;SDS011;26044;50.864;20.658;2022-09-27T09:53:10;30.73;;;17.17;;
40339;SDS011;26044;50.864;20.658;2022-09-27T09:55:42;29.55;;;16.58;;
40339;SDS011;26044;50.864;20.658;2022-09-27T09:58:22;31.00;;;17.45;;
40339;SDS011;26044;50.864;20.658;2022-09-27T10:00:59;28.77;;;16.55;;
40339;SDS011;26044;50.864;20.658;2022-09-27T10:03:39;30.90;;;17.25;;
40339;SDS011;26044;50.864;20.658;2022-09-27T10:06:09;28.67;;;16.90;;
40339;SDS011;26044;50.864;20.658;2022-09-27T10:08:38;28.05;;;15.57;;
40339;SDS011;26044;50.864;20.658;2022-09-27T10:11:06;27.65;;;15.40;;
40339;SDS011;26044;50.864;20.658;2022-09-27T10:13:45;27.77;;;15.45;;
40339;SDS011;26044;50.864;20.658;2022-09-27T10:16:13;29.85;;;16.13;;
40339;SDS011;26044;50.864;20.658;2022-09-27T10:18:42;27.60;;;15.85;;
40339;SDS011;26044;50.864;20.658;2022-09-27T10:21:19;29.90;;;16.30;;
40339;SDS011;26044;50.864;20.658;2022-09-27T10:24:08;28.00;;;15.82;;
40339;SDS011;26044;50.864;20.658;2022-09-27T10:26:44;31.80;;;17.48;;
40339;SDS011;26044;50.864;20.658;2022-09-27T10:29:20;31.33;;;17.17;;
40339;SDS011;26044;50.864;20.658;2022-09-27T10:32:02;30.40;;;16.75;;
40339;SDS011;26044;50.864;20.658;2022-09-27T10:34:40;26.85;;;15.23;;
40339;SDS011;26044;50.864;20.658;2022-09-27T10:39:37;27.08;;;15.27;;
40339;SDS011;26044;50.864;20.658;2022-09-27T10:47:59;29.58;;;14.02;;
40339;SDS011;26044;50.864;20.658;2022-09-27T10:50:28;30.58;;;14.95;;
40339;SDS011;26044;50.864;20.658;2022-09-27T10:53:18;64.47;;;21.52;;
40339;SDS011;26044;50.864;20.658;2022-09-27T10:55:48;25.80;;;14.13;;
40339;SDS011;26044;50.864;20.658;2022-09-27T10:58:18;25.77;;;14.32;;
40339;SDS011;26044;50.864;20.658;2022-09-27T11:00:54;24.73;;;12.98;;
40339;SDS011;26044;50.864;20.658;2022-09-27T11:03:31;23.40;;;12.45;;
40339;SDS011;26044;50.864;20.658;2022-09-27T11:08:48;24.00;;;13.18;;
40339;SDS011;26044;50.864;20.658;2022-09-27T11:11:21;25.67;;;13.57;;
40339;SDS011;26044;50.864;20.658;2022-09-27T11:13:57;23.40;;;12.27;;
40339;SDS011;26044;50.864;20.658;2022-09-27T11:16:44;21.40;;;11.52;;
40339;SDS011;26044;50.864;20.658;2022-09-27T11:27:48;21.45;;;11.05;;
40339;SDS011;26044;50.864;20.658;2022-09-27T11:30:40;21.30;;;10.65;;
40339;SDS011;26044;50.864;20.658;2022-09-27T11:38:31;20.85;;;10.52;;
40339;SDS011;26044;50.864;20.658;2022-09-27T11:41:24;23.88;;;10.95;;
40339;SDS011;26044;50.864;20.658;2022-09-27T11:44:04;22.75;;;11.07;;
40339;SDS011;26044;50.864;20.658;2022-09-27T11:46:39;23.40;;;11.52;;
40339;SDS011;26044;50.864;20.658;2022-09-27T12:05:26;21.08;;;10.32;;
40339;SDS011;26044;50.864;20.658;2022-09-27T12:08:05;19.60;;;9.90;;
40339;SDS011;26044;50.864;20.658;2022-09-27T12:10:39;19.70;;;9.88;;
40339;SDS011;26044;50.864;20.658;2022-09-27T12:13:12;22.98;;;10.68;;
40339;SDS011;26044;50.864;20.658;2022-09-27T12:15:42;20.55;;;10.30;;
40339;SDS011;26044;50.864;20.658;2022-09-27T12:20:46;21.42;;;9.85;;
40339;SDS011;26044;50.864;20.658;2022-09-27T12:25:45;19.73;;;9.35;;
40339;SDS011;26044;50.864;20.658;2022-09-27T12:28:32;21.20;;;10.25;;
40339;SDS011;26044;50.864;20.658;2022-09-27T12:31:22;18.77;;;9.13;;
40339;SDS011;26044;50.864;20.658;2022-09-27T12:34:23;22.42;;;9.63;;
40339;SDS011;26044;50.864;20.658;2022-09-27T12:38:16;20.77;;;9.95;;
40339;SDS011;26044;50.864;20.658;2022-09-27T12:42:56;22.25;;;11.10;;
40339;SDS011;26044;50.864;20.658;2022-09-27T12:45:39;22.83;;;11.05;;
40339;SDS011;26044;50.864;20.658;2022-09-27T12:48:42;24.90;;;12.45;;
40339;SDS011;26044;50.864;20.658;2022-09-27T12:51:22;23.38;;;12.10;;
40339;SDS011;26044;50.864;20.658;2022-09-27T12:54:07;22.40;;;12.10;;
40339;SDS011;26044;50.864;20.658;2022-09-27T12:57:01;22.70;;;11.57;;
40339;SDS011;26044;50.864;20.658;2022-09-27T12:59:39;19.67;;;10.95;;
40339;SDS011;26044;50.864;20.658;2022-09-27T13:08:17;20.15;;;10.23;;
40339;SDS011;26044;50.864;20.658;2022-09-27T13:10:59;20.10;;;9.93;;
40339;SDS011;26044;50.864;20.658;2022-09-27T13:13:47;19.83;;;9.90;;
40339;SDS011;26044;50.864;20.658;2022-09-27T13:16:15;21.88;;;11.32;;
40339;SDS011;26044;50.864;20.658;2022-09-27T13:18:53;26.92;;;12.45;;
40339;SDS011;26044;50.864;20.658;2022-09-27T13:32:38;26.27;;;10.55;;
40339;SDS011;26044;50.864;20.658;2022-09-27T13:37:46;21.38;;;9.23;;
40339;SDS011;26044;50.864;20.658;2022-09-27T13:40:33;16.63;;;7.93;;
40339;SDS011;26044;50.864;20.658;2022-09-27T13:45:53;20.40;;;9.73;;
40339;SDS011;26044;50.864;20.658;2022-09-27T13:51:16;18.02;;;8.00;;
40339;SDS011;26044;50.864;20.658;2022-09-27T13:54:06;19.70;;;8.95;;
40339;SDS011;26044;50.864;20.658;2022-09-27T14:00:12;21.35;;;9.65;;
40339;SDS011;26044;50.864;20.658;2022-09-27T14:05:37;21.77;;;10.45;;
40339;SDS011;26044;50.864;20.658;2022-09-27T14:08:11;21.92;;;10.10;;
40339;SDS011;26044;50.864;20.658;2022-09-27T14:10:44;19.85;;;9.45;;
40339;SDS011;26044;50.864;20.658;2022-09-27T14:13:11;21.13;;;10.98;;
40339;SDS011;26044;50.864;20.658;2022-09-27T14:15:43;21.60;;;10.05;;
40339;SDS011;26044;50.864;20.658;2022-09-27T14:18:12;22.92;;;11.00;;
40339;SDS011;26044;50.864;20.658;2022-09-27T14:20:42;67.70;;;21.08;;
40339;SDS011;26044;50.864;20.658;2022-09-27T14:23:15;24.40;;;11.15;;
40339;SDS011;26044;50.864;20.658;2022-09-27T14:25:49;22.02;;;11.40;;
40339;SDS011;26044;50.864;20.658;2022-09-27T14:28:27;23.23;;;11.48;;
40339;SDS011;26044;50.864;20.658;2022-09-27T14:31:15;21.40;;;10.60;;
40339;SDS011;26044;50.864;20.658;2022-09-27T14:36:22;24.17;;;11.32;;
40339;SDS011;26044;50.864;20.658;2022-09-27T14:39:21;21.92;;;10.88;;
40339;SDS011;26044;50.864;20.658;2022-09-27T14:41:50;21.80;;;10.82;;
40339;SDS011;26044;50.864;20.658;2022-09-27T14:44:18;22.13;;;10.68;;
40339;SDS011;26044;50.864;20.658;2022-09-27T14:49:59;20.25;;;9.90;;
40339;SDS011;26044;50.864;20.658;2022-09-27T14:52:31;22.13;;;10.18;;
40339;SDS011;26044;50.864;20.658;2022-09-27T14:55:04;22.50;;;10.95;;
40339;SDS011;26044;50.864;20.658;2022-09-27T14:57:38;23.65;;;10.88;;
40339;SDS011;26044;50.864;20.658;2022-09-27T15:00:15;22.73;;;11.20;;
40339;SDS011;26044;50.864;20.658;2022-09-27T15:02:51;22.75;;;11.15;;
40339;SDS011;26044;50.864;20.658;2022-09-27T15:05:30;25.35;;;12.70;;
40339;SDS011;26044;50.864;20.658;2022-09-27T15:08:00;25.90;;;13.15;;
40339;SDS011;26044;50.864;20.658;2022-09-27T15:10:34;24.73;;;12.65;;
40339;SDS011;26044;50.864;20.658;2022-09-27T15:13:02;28.10;;;12.13;;
40339;SDS011;26044;50.864;20.658;2022-09-27T15:15:34;27.23;;;13.95;;
40339;SDS011;26044;50.864;20.658;2022-09-27T15:21:00;30.40;;;14.77;;
40339;SDS011;26044;50.864;20.658;2022-09-27T15:23:29;28.85;;;14.13;;
40339;SDS011;26044;50.864;20.658;2022-09-27T15:28:35;26.10;;;13.38;;
40339;SDS011;26044;50.864;20.658;2022-09-27T15:31:05;27.17;;;14.52;;
40339;SDS011;26044;50.864;20.658;2022-09-27T15:33:33;27.00;;;14.75;;
40339;SDS011;26044;50.864;20.658;2022-09-27T15:36:06;30.33;;;15.75;;
40339;SDS011;26044;50.864;20.658;2022-09-27T15:41:10;27.90;;;15.48;;
40339;SDS011;26044;50.864;20.658;2022-09-27T15:43:39;29.38;;;15.63;;
40339;SDS011;26044;50.864;20.658;2022-09-27T15:46:27;28.33;;;15.80;;
40339;SDS011;26044;50.864;20.658;2022-09-27T15:51:59;27.92;;;15.48;;
40339;SDS011;26044;50.864;20.658;2022-09-27T15:54:29;31.25;;;16.13;;
40339;SDS011;26044;50.864;20.658;2022-09-27T15:56:59;32.92;;;17.05;;
40339;SDS011;26044;50.864;20.658;2022-09-27T15:59:31;30.10;;;17.20;;
40339;SDS011;26044;50.864;20.658;2022-09-27T16:02:01;29.13;;;16.60;;
40339;SDS011;26044;50.864;20.658;2022-09-27T16:04:33;31.02;;;17.50;;
40339;SDS011;26044;50.864;20.658;2022-09-27T16:07:00;34.72;;;20.17;;
40339;SDS011;26044;50.864;20.658;2022-09-27T16:09:29;33.60;;;19.13;;
40339;SDS011;26044;50.864;20.658;2022-09-27T16:11:56;33.35;;;19.17;;
40339;SDS011;26044;50.864;20.658;2022-09-27T16:14:22;36.38;;;19.83;;
40339;SDS011;26044;50.864;20.658;2022-09-27T16:16:51;34.92;;;18.75;;
40339;SDS011;26044;50.864;20.658;2022-09-27T16:19:25;35.58;;;19.70;;
40339;SDS011;26044;50.864;20.658;2022-09-27T16:21:52;36.92;;;21.20;;
40339;SDS011;26044;50.864;20.658;2022-09-27T16:24:19;38.08;;;21.30;;
40339;SDS011;26044;50.864;20.658;2022-09-27T16:26:45;37.13;;;21.13;;
40339;SDS011;26044;50.864;20.658;2022-09-27T16:29:13;34.30;;;20.15;;
40339;SDS011;26044;50.864;20.658;2022-09-27T16:31:41;36.85;;;21.95;;
40339;SDS011;26044;50.864;20.658;2022-09-27T16:34:08;40.53;;;23.45;;
40339;SDS011;26044;50.864;20.658;2022-09-27T16:36:35;35.63;;;21.45;;
40339;SDS011;26044;50.864;20.658;2022-09-27T16:39:07;41.22;;;23.65;;
40339;SDS011;26044;50.864;20.658;2022-09-27T16:41:38;39.13;;;23.33;;
40339;SDS011;26044;50.864;20.658;2022-09-27T16:44:10;41.25;;;23.15;;
40339;SDS011;26044;50.864;20.658;2022-09-27T16:46:39;42.10;;;24.58;;
40339;SDS011;26044;50.864;20.658;2022-09-27T16:49:07;41.95;;;23.63;;
40339;SDS011;26044;50.864;20.658;2022-09-27T16:51:53;41.47;;;22.90;;
40339;SDS011;26044;50.864;20.658;2022-09-27T16:54:27;43.95;;;26.35;;
40339;SDS011;26044;50.864;20.658;2022-09-27T16:56:55;41.38;;;23.50;;
40339;SDS011;26044;50.864;20.658;2022-09-27T16:59:24;45.75;;;23.20;;
40339;SDS011;26044;50.864;20.658;2022-09-27T17:01:51;43.75;;;25.42;;
40339;SDS011;26044;50.864;20.658;2022-09-27T17:04:23;38.45;;;23.40;;
40339;SDS011;26044;50.864;20.658;2022-09-27T17:06:50;43.70;;;24.70;;
40339;SDS011;26044;50.864;20.658;2022-09-27T17:09:17;44.28;;;25.13;;
40339;SDS011;26044;50.864;20.658;2022-09-27T17:11:44;41.17;;;24.00;;
40339;SDS011;26044;50.864;20.658;2022-09-27T17:14:11;43.45;;;25.38;;
40339;SDS011;26044;50.864;20.658;2022-09-27T17:16:43;42.15;;;25.83;;
40339;SDS011;26044;50.864;20.658;2022-09-27T17:19:10;45.42;;;26.05;;
40339;SDS011;26044;50.864;20.658;2022-09-27T17:21:38;48.40;;;27.45;;
40339;SDS011;26044;50.864;20.658;2022-09-27T17:24:06;44.47;;;25.35;;
40339;SDS011;26044;50.864;20.658;2022-09-27T17:26:32;45.53;;;25.92;;
40339;SDS011;26044;50.864;20.658;2022-09-27T17:28:59;44.90;;;25.63;;
40339;SDS011;26044;50.864;20.658;2022-09-27T17:31:27;45.55;;;27.00;;
40339;SDS011;26044;50.864;20.658;2022-09-27T17:33:56;43.50;;;26.83;;
40339;SDS011;26044;50.864;20.658;2022-09-27T17:36:26;44.33;;;25.83;;
40339;SDS011;26044;50.864;20.658;2022-09-27T17:38:56;43.97;;;25.52;;
40339;SDS011;26044;50.864;20.658;2022-09-27T17:41:25;44.92;;;26.55;;
40339;SDS011;26044;50.864;20.658;2022-09-27T17:43:53;46.45;;;26.77;;
40339;SDS011;26044;50.864;20.658;2022-09-27T17:46:24;47.13;;;26.92;;
40339;SDS011;26044;50.864;20.658;2022-09-27T17:48:56;45.47;;;27.52;;
40339;SDS011;26044;50.864;20.658;2022-09-27T17:51:44;53.38;;;30.08;;
40339;SDS011;26044;50.864;20.658;2022-09-27T17:54:12;53.92;;;31.90;;
40339;SDS011;26044;50.864;20.658;2022-09-27T17:56:40;62.95;;;34.80;;
40339;SDS011;26044;50.864;20.658;2022-09-27T17:59:08;58.40;;;34.95;;
40339;SDS011;26044;50.864;20.658;2022-09-27T18:01:38;53.15;;;31.67;;
40339;SDS011;26044;50.864;20.658;2022-09-27T18:04:06;54.45;;;32.22;;
40339;SDS011;26044;50.864;20.658;2022-09-27T18:06:38;63.72;;;34.90;;